Custer, SD

9:06 AM MDT on August 30, 2014 (GMT -0600)
Rapid City | Change Station
CLOSE
Current Station
Airport
Location: Rapid City,
Elevation: 3166 ft
Nearby Weather Stations

Elev 3166 ft 44.05 °N, 103.06 °W | Updated 14 minutes ago

Clear
Clear
62 °F
Feels Like 62 °F
N
13
Wind Variable Wind from SE

Today
High -- | Low -- °F
--% Chance of Precip.
Yesterday
High -- | Low -- °F
Precip. -- in
6:15 AM 7:33 PM
Waxing Crescent, 22% visible
Pressure 29.87 in
Visibility 10.0 miles
Clouds Clear
Dew Point 57 °F
Humidity 84%
Rainfall 0.00 in
Snow Depth Not available.
UV 3 out of 12
Pollen 9.70 out of 12
Air Quality Not available.
Flu Activity Not available.
METAR KRAP 301452Z 14011KT 10SM CLR 17/14 A2991 RMK AO2 SLP113 T01670139 58015

More Conditions Fewer Conditions

Pressure 29.87 in
Visibility 10.0 miles
Clouds Clear
Dew Point 57 °F
Humidity 84%
Rainfall 0.00 in
Snow Depth Not available.
UV 3 out of 12
Pollen 9.70 out of 12
Air Quality Not available.
Flu Activity Not available.
METAR KRAP 301452Z 14011KT 10SM CLR 17/14 A2991 RMK AO2 SLP113 T01670139 58015

More Conditions Fewer Conditions

10-Day Weather Forecast

Almanac

Astronomy

Aug. 30, 2014 Rise Set
Actual Time 6:15 AM MDT 7:33 PM MDT
Civil Twilight 5:46 AM MDT 8:03 PM MDT
Nautical Twilight 5:10 AM MDT 8:38 PM MDT
Astronomical Twilight 4:32 AM MDT 9:16 PM MDT
Moon 11:16 AM MDT 9:58 PM MDT
Length of Visible Light 14h 16m
Length of Day
13h 17m
Tomorrow will be 2m 51s shorter.
Waxing Crescent, 22% of the Moon is Illuminated
Today
Waxing Crescent
Sep 2
First Quarter
Sep 8
Full
Sep 15
Last Quarter
Sep 24
New

Today's Extremes

State Highs State Lows

Community

WunderPhotos

Upload Photos

1,748,536 photos uploaded!

WunderBlogs® & News

Nearby

Snow Depth

Station Depth Elevation
Blind Park 0 in 6890 ft
North Rapid Creek 0 in 6130 ft

Earthquake Activity

City Distance Mag. Time & Date
No recent earthquake activity has been reported nearby.
Minimum magnitude displayed is 2.5.

Coastal Water Temperatures

Place Temperature
No Stations Reporting

Nearby Weather Stations